Historique des stations

Station météo de Château-Renault

Altitude de la station : 120 m







Données météorologiques pour le 04/12/2022
Date
Heure
Températures Humidité Point de rosée Vitesse
du vent
Direction Rafales Windchill Pression Pluviométrie
Cumul
Date
Heure
Températures Humidité Point de rosée Vitesse
du vent
Direction Rafales Windchill Pression Pluviométrie
Cumul
04/12/2022 17:053.6 °C91 %2.2 °C3 km/hESE3 km/h2.8 1013 hPa-
04/12/2022 16:503.6 °C92 %2.2 °C-ESE5 km/h3.9 1013 hPa-
04/12/2022 16:353.6 °C91 %2.2 °C-OSO3 km/h3.9 1013 hPa-
04/12/2022 16:203.6 °C91 %2.2 °C-OSO3 km/h3.9 1013 hPa-
04/12/2022 16:053.7 °C91 %2.2 °C2 km/hOSO8 km/h3.3 1013 hPa-
04/12/2022 15:503.7 °C92 %2.8 °C2 km/hOSO3 km/h3.3 1013 hPa-
04/12/2022 15:353.7 °C92 %2.8 °C-OSO2 km/h3.9 1013 hPa-
04/12/2022 15:203.7 °C91 %2.2 °C-OSO3 km/h3.9 1013 hPa-
04/12/2022 15:053.7 °C91 %2.2 °C2 km/hOSO6 km/h3.3 1013 hPa-
04/12/2022 14:503.7 °C92 %2.8 °C-OSO5 km/h3.9 1012 hPa-
04/12/2022 14:353.7 °C92 %2.8 °C3 km/hOSO6 km/h2.8 1012 hPa-
04/12/2022 14:203.7 °C92 %2.8 °C3 km/hO5 km/h2.8 1012 hPa-
04/12/2022 14:053.7 °C92 %2.8 °C2 km/hN6 km/h3.3 1012 hPa-
04/12/2022 13:503.6 °C92 %2.2 °C3 km/hONO10 km/h2.2 1012 hPa-
04/12/2022 13:353.6 °C93 %2.8 °C5 km/hONO10 km/h2.2 1012 hPa-
04/12/2022 13:203.6 °C94 %2.8 °C5 km/hO8 km/h2.2 1012 hPa-
04/12/2022 13:053.6 °C94 %2.8 °C6 km/hO10 km/h1.7 1012 hPa-
04/12/2022 12:503.4 °C94 %2.8 °C5 km/hONO6 km/h2.2 1012 hPa-
04/12/2022 12:363.3 °C94 %2.8 °C3 km/hONO11 km/h2.2 1012 hPa-
04/12/2022 12:203.3 °C94 %2.2 °C3 km/hONO6 km/h2.2 1012 hPa-
04/12/2022 12:053.3 °C94 %2.2 °C5 km/hSO6 km/h2.2 1012 hPa-
04/12/2022 11:503.2 °C93 %2.2 °C5 km/hO8 km/h2.2 1013 hPa-
04/12/2022 11:353.1 °C93 %2.2 °C5 km/hO11 km/h2.2 1013 hPa-
04/12/2022 11:203.1 °C93 %2.2 °C5 km/hOSO11 km/h2.2 1013 hPa-
04/12/2022 11:053.0 °C92 %1.7 °C5 km/hO13 km/h1.7 1013 hPa-
04/12/2022 10:502.9 °C92 %1.7 °C3 km/hOSO13 km/h1.7 1012 hPa-
04/12/2022 10:352.9 °C92 %1.7 °C5 km/hSSO13 km/h1.7 1012 hPa-
04/12/2022 10:202.8 °C92 %1.7 °C5 km/hOSO16 km/h1.7 1012 hPa-
04/12/2022 10:052.8 °C92 %1.7 °C5 km/hO13 km/h1.7 1012 hPa-
04/12/2022 09:502.7 °C92 %1.7 °C5 km/hO11 km/h1.7 1012 hPa-
04/12/2022 09:352.7 °C92 %1.7 °C5 km/hSO11 km/h1.7 1012 hPa-
04/12/2022 09:202.6 °C92 %1.7 °C6 km/hSSO13 km/h1.1 1012 hPa-
04/12/2022 09:052.6 °C92 %1.7 °C5 km/hOSO11 km/h1.7 1012 hPa-
04/12/2022 08:502.6 °C92 %1.7 °C5 km/hSO14 km/h1.7 1012 hPa-
04/12/2022 08:352.6 °C92 %1.7 °C5 km/hSO11 km/h1.7 1012 hPa-
04/12/2022 08:212.6 °C92 %1.7 °C6 km/hO16 km/h1.1 1012 hPa-
04/12/2022 08:052.5 °C92 %1.1 °C10 km/hO18 km/h0.0 1012 hPa-
04/12/2022 07:522.5 °C92 %1.1 °C5 km/hOSO13 km/h1.7 1012 hPa-
04/12/2022 07:372.5 °C92 %1.1 °C5 km/hOSO11 km/h1.7 1012 hPa-
04/12/2022 07:222.5 °C92 %1.1 °C10 km/hSO13 km/h0.0 1012 hPa-
04/12/2022 07:082.4 °C92 %1.1 °C6 km/hOSO13 km/h0.6 1011 hPa-
04/12/2022 06:512.4 °C91 %1.1 °C10 km/hSO16 km/h-0.6 1012 hPa-
04/12/2022 06:362.4 °C92 %1.1 °C5 km/hOSO14 km/h1.1 1012 hPa-
04/12/2022 06:212.4 °C92 %1.1 °C13 km/hOSO18 km/h-1.1 1012 hPa-
04/12/2022 06:062.4 °C91 %1.1 °C10 km/hOSO14 km/h-0.6 1012 hPa-
04/12/2022 05:512.4 °C91 %1.1 °C6 km/hOSO13 km/h0.6 1012 hPa-
04/12/2022 05:362.4 °C91 %1.1 °C6 km/hOSO14 km/h0.6 1011 hPa-
04/12/2022 05:212.4 °C91 %1.1 °C8 km/hSO18 km/h0.0 1011 hPa-
04/12/2022 05:062.4 °C91 %1.1 °C5 km/hSO19 km/h1.1 1011 hPa-
04/12/2022 04:512.4 °C91 %1.1 °C5 km/hSSO18 km/h1.1 1011 hPa-
04/12/2022 04:362.4 °C91 %1.1 °C6 km/hSSO19 km/h0.6 1011 hPa-
04/12/2022 04:212.4 °C91 %1.1 °C10 km/hO19 km/h-0.6 1012 hPa-
04/12/2022 04:062.4 °C90 %1.1 °C8 km/hSO16 km/h0.0 1012 hPa-
04/12/2022 03:512.4 °C90 %1.1 °C11 km/hSSO18 km/h-0.6 1011 hPa-
04/12/2022 03:362.4 °C90 %1.1 °C8 km/hOSO18 km/h0.0 1012 hPa-
04/12/2022 03:212.4 °C90 %1.1 °C3 km/hSO18 km/h1.1 1012 hPa-
04/12/2022 03:062.4 °C90 %1.1 °C11 km/hSO16 km/h-0.6 1012 hPa-
04/12/2022 02:512.5 °C90 %1.1 °C5 km/hSO19 km/h1.7 1012 hPa-
04/12/2022 02:362.6 °C90 %1.1 °C6 km/hOSO21 km/h1.1 1012 hPa-
04/12/2022 02:212.6 °C90 %1.1 °C3 km/hO14 km/h1.7 1012 hPa-
04/12/2022 02:062.5 °C90 %1.1 °C8 km/hOSO11 km/h0.6 1012 hPa-
04/12/2022 01:502.6 °C90 %1.1 °C14 km/hOSO14 km/h-0.6 1012 hPa-
04/12/2022 01:352.6 °C90 %1.1 °C5 km/hSO14 km/h1.7 1012 hPa-
04/12/2022 01:202.7 °C90 %1.1 °C6 km/hO13 km/h1.1 1012 hPa-
04/12/2022 01:052.7 °C90 %1.1 °C8 km/hOSO16 km/h0.6 1012 hPa-
04/12/2022 00:502.7 °C90 %1.1 °C5 km/hSSO18 km/h1.7 1012 hPa-
04/12/2022 00:352.8 °C90 %1.1 °C3 km/hSO18 km/h1.7 1013 hPa-
04/12/2022 00:202.8 °C90 %1.1 °C8 km/hSO14 km/h0.6 1013 hPa-
04/12/2022 00:052.8 °C90 %1.1 °C5 km/hO14 km/h1.7 1013 hPa-


Minima :

Température : 2.4 °C
Humidité : 90 %
Point de rosée : 1.1 °C
Vent moyen : 2 km/h
Windchill : -1.1
Pression atm. : 1011 hPa
Maxima :

Température : 3.7 °C
Humidité : 94 %
Point de rosée : 2.8 °C
Vent moyen : 14 km/h
Windchill : 3.9
Pression atm. : 1013 hPa
Rafales max : 21 km/h
Cumul de pluie sur 24H : 0 mm

Chateau-RENAULT est une commune du département Indre-et-Loire (37).
La station météorologique du réseau de l'association la plus proche de Château-Renault est celle de Véretz



Icône Facebook Association Météo Centre Icône Twitter Association Météo Centre Icône Chaîne Youtube Association Météo Centre Icône contact Association Météo Centre Icône Insta Association Météo Centre